createdAt,value
2017-10-10T00:03:18.489Z,0
2017-10-10T00:13:20.219Z,0
2017-10-10T00:23:20.299Z,0
2017-10-10T00:33:21.813Z,0
2017-10-10T00:43:18.308Z,0
2017-10-10T00:53:26.682Z,0
2017-10-10T01:03:18.307Z,0
2017-10-10T01:13:18.369Z,0
2017-10-10T01:23:25.120Z,0
2017-10-10T01:33:18.309Z,0
2017-10-10T01:43:19.628Z,0
2017-10-10T01:53:19.580Z,0
2017-10-10T02:03:18.635Z,0
2017-10-10T02:13:18.723Z,0
2017-10-10T02:23:22.650Z,0
2017-10-10T02:33:22.597Z,0
2017-10-10T02:43:22.160Z,0
2017-10-10T02:53:18.627Z,0
2017-10-10T03:03:19.712Z,0
2017-10-10T03:13:22.020Z,0
2017-10-10T03:23:20.065Z,0
2017-10-10T03:33:18.677Z,0
2017-10-10T03:43:24.171Z,0
2017-10-10T03:53:18.670Z,0
2017-10-10T04:03:18.761Z,0
2017-10-10T04:13:20.793Z,0
2017-10-10T04:23:18.694Z,0
2017-10-10T04:33:18.774Z,0
2017-10-10T04:43:18.809Z,0
2017-10-10T04:53:21.207Z,0
2017-10-10T05:03:18.751Z,0
2017-10-10T05:13:18.796Z,0
2017-10-10T05:23:20.141Z,4
2017-10-10T05:33:18.800Z,8
2017-10-10T05:43:18.882Z,24
2017-10-10T05:53:18.843Z,56
2017-10-10T06:03:20.913Z,100
2017-10-10T06:13:18.867Z,140
2017-10-10T06:23:19.154Z,284
2017-10-10T06:33:18.916Z,432
2017-10-10T06:43:19.921Z,576
2017-10-10T06:53:19.924Z,380
2017-10-10T07:03:18.900Z,1064
2017-10-10T07:13:18.922Z,1072
2017-10-10T07:23:18.929Z,1692
2017-10-10T07:33:18.980Z,1460
2017-10-10T07:43:18.928Z,2476
2017-10-10T07:53:19.328Z,1728
2017-10-10T08:03:19.964Z,2380
2017-10-10T08:13:19.914Z,3860
2017-10-10T08:23:19.233Z,1908
2017-10-10T08:33:18.947Z,1972
2017-10-10T08:43:20.032Z,1508
2017-10-10T08:53:18.934Z,4772
2017-10-10T09:03:18.963Z,10532
2017-10-10T09:13:19.013Z,8872
2017-10-10T09:23:19.015Z,7692
2017-10-10T09:33:18.954Z,5708
2017-10-10T09:43:18.986Z,7080
2017-10-10T09:53:19.021Z,7044
2017-10-10T10:03:19.010Z,9776
2017-10-10T10:13:19.070Z,11192
2017-10-10T10:23:19.384Z,12504
2017-10-10T10:33:19.045Z,16320
2017-10-10T10:43:19.027Z,10368
2017-10-10T10:53:19.034Z,8832
2017-10-10T11:03:19.083Z,7368
2017-10-10T11:13:19.050Z,7452
2017-10-10T11:23:19.450Z,9936
2017-10-10T11:33:19.059Z,8096
2017-10-10T11:43:19.492Z,7424
2017-10-10T11:53:19.486Z,13232
2017-10-10T12:03:19.143Z,11120
2017-10-10T12:13:20.169Z,10340
2017-10-10T12:23:19.063Z,6472
2017-10-10T12:33:20.146Z,6732
2017-10-10T12:43:19.082Z,6256
2017-10-10T12:53:19.140Z,9024
2017-10-10T13:03:19.105Z,7780
2017-10-10T13:13:20.122Z,7296
2017-10-10T13:23:19.281Z,5524
2017-10-10T13:33:19.257Z,8304
2017-10-10T13:43:19.080Z,3972
2017-10-10T13:53:19.510Z,6528
2017-10-10T14:03:19.101Z,4000
2017-10-10T14:13:19.200Z,2088
2017-10-10T14:23:19.139Z,2568
2017-10-10T14:33:19.097Z,1724
2017-10-10T14:43:19.194Z,1096
2017-10-10T14:53:19.103Z,664
2017-10-10T15:03:19.085Z,640
2017-10-10T15:13:19.168Z,700
2017-10-10T15:23:19.127Z,388
2017-10-10T15:33:19.207Z,592
2017-10-10T15:43:19.161Z,1140
2017-10-10T15:53:19.175Z,780
2017-10-10T16:03:19.203Z,788
2017-10-10T16:13:19.512Z,392
2017-10-10T16:23:19.080Z,280
2017-10-10T16:33:19.132Z,132
2017-10-10T16:43:19.219Z,64
2017-10-10T16:53:19.191Z,56
2017-10-10T17:03:19.120Z,8
2017-10-10T17:13:28.859Z,4
2017-10-10T17:23:19.040Z,4
2017-10-10T17:33:25.183Z,0
2017-10-10T17:43:43.876Z,0
2017-10-10T17:53:20.543Z,4
2017-10-10T18:03:22.309Z,4
2017-10-10T18:13:22.381Z,0
2017-10-10T18:23:22.836Z,0
2017-10-10T18:33:22.376Z,0
2017-10-10T18:43:22.234Z,0
2017-10-10T18:53:22.481Z,0
2017-10-10T19:03:22.253Z,0
2017-10-10T19:13:22.362Z,0
2017-10-10T19:23:22.404Z,0
2017-10-10T19:33:22.934Z,0
2017-10-10T19:43:22.459Z,0
2017-10-10T19:53:22.447Z,0
2017-10-10T20:03:22.259Z,0
2017-10-10T20:13:22.363Z,0
2017-10-10T20:23:25.953Z,0
2017-10-10T20:33:19.377Z,0
2017-10-10T20:43:19.197Z,0
2017-10-10T20:53:19.184Z,0
2017-10-10T21:03:19.233Z,0
2017-10-10T21:13:19.197Z,0
2017-10-10T21:23:19.997Z,0
2017-10-10T21:33:19.250Z,0
2017-10-10T21:43:19.280Z,4
2017-10-10T21:53:19.248Z,4
2017-10-10T22:03:19.300Z,0
2017-10-10T22:13:19.195Z,0
2017-10-10T22:23:19.293Z,0
2017-10-10T22:33:19.268Z,0
2017-10-10T22:43:19.287Z,0
2017-10-10T22:53:19.251Z,0
2017-10-10T23:03:19.315Z,0
2017-10-10T23:13:19.258Z,0
2017-10-10T23:23:19.329Z,0
2017-10-10T23:33:19.293Z,0
2017-10-10T23:43:19.357Z,0
2017-10-10T23:53:19.344Z,0
